createdAt,value
2023-04-26T00:02:21.551Z,5.97
2023-04-26T00:04:51.948Z,6.55
2023-04-26T00:07:20.797Z,7.00
2023-04-26T00:09:47.738Z,5.95
2023-04-26T00:12:14.805Z,6.47
2023-04-26T00:14:44.827Z,6.53
2023-04-26T00:17:11.976Z,7.07
2023-04-26T00:19:38.933Z,6.47
2023-04-26T00:22:05.935Z,7.85
2023-04-26T00:24:34.779Z,6.95
2023-04-26T00:27:01.943Z,7.32
2023-04-26T00:29:29.087Z,6.75
2023-04-26T00:31:56.053Z,6.47
2023-04-26T00:34:23.063Z,7.60
2023-04-26T00:36:50.145Z,6.85
2023-04-26T00:39:17.125Z,6.93
2023-04-26T00:41:45.515Z,7.30
2023-04-26T00:44:12.432Z,6.90
2023-04-26T00:46:39.525Z,6.68
2023-04-26T00:49:06.537Z,6.45
2023-04-26T00:51:33.728Z,6.32
2023-04-26T00:54:00.804Z,6.57
2023-04-26T00:56:28.063Z,6.90
2023-04-26T00:58:56.641Z,7.57
2023-04-26T01:01:23.998Z,6.93
2023-04-26T01:03:51.115Z,7.25
2023-04-26T01:06:18.435Z,7.82
2023-04-26T01:08:45.397Z,8.23
2023-04-26T01:11:12.679Z,8.00
2023-04-26T01:13:41.781Z,7.05
2023-04-26T01:16:10.260Z,8.00
2023-04-26T01:18:37.401Z,8.07
2023-04-26T01:21:04.452Z,7.85
2023-04-26T01:23:32.817Z,6.82
2023-04-26T01:25:59.927Z,6.68
2023-04-26T01:28:27.113Z,6.68
2023-04-26T01:30:54.223Z,7.25
2023-04-26T01:33:21.384Z,6.57
2023-04-26T01:35:48.541Z,6.20
2023-04-26T01:38:15.494Z,6.70
2023-04-26T01:40:43.811Z,7.07
2023-04-26T01:43:10.862Z,7.40
2023-04-26T01:45:37.806Z,6.95
2023-04-26T01:48:05.281Z,6.70
2023-04-26T01:50:32.545Z,6.53
2023-04-26T01:52:59.436Z,6.18
2023-04-26T01:55:26.386Z,6.03
2023-04-26T01:57:55.057Z,6.32
2023-04-26T02:00:22.188Z,6.57
2023-04-26T02:02:49.354Z,6.53
2023-04-26T02:05:16.599Z,6.50
2023-04-26T02:07:43.594Z,6.18
2023-04-26T02:10:10.735Z,6.40
2023-04-26T02:12:37.755Z,7.00
2023-04-26T02:15:08.491Z,6.43
2023-04-26T02:17:35.631Z,6.47
2023-04-26T02:20:02.657Z,6.78
2023-04-26T02:22:29.837Z,6.70
2023-04-26T02:24:56.821Z,6.70
2023-04-26T02:27:23.747Z,6.70
2023-04-26T02:29:50.793Z,6.05
2023-04-26T02:32:19.076Z,6.22
2023-04-26T02:34:46.240Z,6.35
2023-04-26T02:37:13.219Z,6.35
2023-04-26T02:39:40.333Z,6.40
2023-04-26T02:42:09.451Z,6.75
2023-04-26T02:44:36.660Z,6.80
2023-04-26T02:47:03.811Z,5.97
2023-04-26T02:49:32.514Z,6.35
2023-04-26T02:51:59.494Z,6.30
2023-04-26T02:54:26.515Z,6.20
2023-04-26T02:56:53.484Z,6.70
2023-04-26T02:59:20.579Z,7.00
2023-04-26T03:01:47.648Z,7.55
2023-04-26T03:04:14.943Z,7.80
2023-04-26T03:06:43.418Z,7.00
2023-04-26T03:09:10.359Z,7.90
2023-04-26T03:11:37.543Z,6.47
2023-04-26T03:14:04.833Z,7.82
2023-04-26T03:16:31.900Z,7.80
2023-04-26T03:18:58.982Z,7.47
2023-04-26T03:21:25.928Z,6.90
2023-04-26T03:23:54.561Z,6.93
2023-04-26T03:26:21.692Z,6.47
2023-04-26T03:28:48.619Z,7.15
2023-04-26T03:31:15.599Z,7.25
2023-04-26T03:33:42.571Z,6.75
2023-04-26T03:36:09.792Z,7.13
2023-04-26T03:38:36.841Z,6.28
2023-04-26T03:41:05.380Z,7.38
2023-04-26T03:43:32.288Z,7.40
2023-04-26T03:45:59.262Z,6.70
2023-04-26T03:48:26.661Z,7.05
2023-04-26T03:50:53.646Z,6.57
2023-04-26T03:53:20.557Z,7.47
2023-04-26T03:55:47.489Z,8.07
2023-04-26T03:58:15.847Z,7.85
2023-04-26T04:00:42.783Z,7.15
2023-04-26T04:03:10.373Z,8.07
2023-04-26T04:05:37.599Z,7.38
2023-04-26T04:08:05.065Z,7.75
2023-04-26T04:10:32.030Z,7.30
2023-04-26T04:12:58.986Z,7.82
2023-04-26T04:15:27.417Z,7.28
2023-04-26T04:17:54.677Z,6.60
2023-04-26T04:20:21.712Z,7.57
2023-04-26T04:22:48.944Z,7.13
2023-04-26T04:25:16.181Z,8.07
2023-04-26T04:27:43.167Z,7.90
2023-04-26T04:30:11.194Z,8.23
2023-04-26T04:32:39.704Z,8.15
2023-04-26T04:35:07.436Z,7.65
2023-04-26T04:37:34.443Z,7.88
2023-04-26T04:40:01.580Z,7.75
2023-04-26T04:42:28.585Z,8.23
2023-04-26T04:44:55.668Z,8.30
2023-04-26T04:47:22.987Z,8.10
2023-04-26T04:49:51.443Z,7.68
2023-04-26T04:52:19.058Z,8.02
2023-04-26T04:54:46.228Z,7.78
2023-04-26T04:57:13.156Z,8.30
2023-04-26T04:59:40.412Z,8.40
2023-04-26T05:02:07.519Z,7.85
2023-04-26T05:04:34.857Z,8.73
2023-04-26T05:07:03.416Z,8.10
2023-04-26T05:09:30.402Z,9.20
2023-04-26T05:11:57.458Z,8.48
2023-04-26T05:14:24.714Z,8.43
2023-04-26T05:16:51.889Z,7.88
2023-04-26T05:19:18.826Z,8.60
2023-04-26T05:21:46.007Z,8.43
2023-04-26T05:24:14.451Z,8.77
2023-04-26T05:26:41.608Z,8.18
2023-04-26T05:29:08.594Z,8.45
2023-04-26T05:31:35.708Z,8.80
2023-04-26T05:34:02.837Z,9.10
2023-04-26T05:36:30.147Z,8.27
2023-04-26T05:38:57.549Z,8.70
2023-04-26T05:41:25.915Z,9.15
2023-04-26T05:43:53.218Z,10.05
2023-04-26T05:46:20.438Z,8.77
2023-04-26T05:48:47.409Z,8.88
2023-04-26T05:51:14.490Z,9.93
2023-04-26T05:53:41.499Z,9.18
2023-04-26T05:56:08.514Z,9.40
2023-04-26T05:58:36.998Z,10.13
2023-04-26T06:01:04.113Z,10.00
2023-04-26T06:03:31.429Z,9.63
2023-04-26T06:05:59.856Z,9.65
2023-04-26T06:08:26.973Z,9.88
2023-04-26T06:10:54.116Z,10.35
2023-04-26T06:13:21.281Z,10.25
2023-04-26T06:15:49.850Z,10.40
2023-04-26T06:18:16.889Z,9.98
2023-04-26T06:20:43.838Z,10.70
2023-04-26T06:23:10.789Z,10.52
2023-04-26T06:25:37.844Z,11.90
2023-04-26T06:28:05.057Z,9.90
2023-04-26T06:30:32.259Z,10.88
2023-04-26T06:33:00.814Z,10.68
2023-04-26T06:35:27.795Z,9.68
2023-04-26T06:37:54.959Z,9.80
2023-04-26T06:40:22.084Z,11.52
2023-04-26T06:42:49.193Z,10.20
2023-04-26T06:45:16.360Z,10.27
2023-04-26T06:47:43.445Z,10.90
2023-04-26T06:50:13.564Z,11.75
2023-04-26T06:52:40.622Z,11.23
2023-04-26T06:55:08.764Z,11.63
2023-04-26T06:57:35.873Z,12.00
2023-04-26T07:00:09.819Z,13.48
2023-04-26T07:02:37.083Z,11.35
2023-04-26T07:05:11.458Z,12.15
2023-04-26T07:07:40.313Z,10.75
2023-04-26T07:10:15.956Z,10.52
2023-04-26T07:12:42.936Z,10.95
2023-04-26T07:15:17.804Z,9.65
2023-04-26T07:17:44.824Z,8.50
2023-04-26T07:20:18.809Z,8.55
2023-04-26T07:22:47.662Z,7.82
2023-04-26T07:25:20.790Z,7.57
2023-04-26T07:27:47.832Z,7.22
2023-04-26T07:30:21.835Z,6.32
2023-04-26T07:32:48.973Z,6.10
2023-04-26T07:35:22.821Z,6.18
2023-04-26T07:37:51.282Z,7.03
2023-04-26T07:40:25.082Z,6.57
2023-04-26T07:42:53.176Z,6.32
2023-04-26T07:45:20.260Z,6.25
2023-04-26T07:47:54.121Z,7.20
2023-04-26T07:50:21.252Z,6.43
2023-04-26T07:52:54.840Z,7.03
2023-04-26T07:55:23.526Z,6.05
2023-04-26T07:57:56.830Z,5.85
2023-04-26T08:00:24.430Z,5.55
2023-04-26T08:02:58.256Z,5.80
2023-04-26T08:05:25.838Z,5.57
2023-04-26T08:07:59.803Z,5.55
2023-04-26T08:10:28.280Z,6.22
2023-04-26T08:13:01.879Z,6.93
2023-04-26T08:15:28.908Z,6.32
2023-04-26T08:18:02.930Z,4.93
2023-04-26T08:20:30.091Z,5.50
2023-04-26T08:23:03.799Z,6.68
2023-04-26T08:25:32.288Z,5.35
2023-04-26T08:28:05.820Z,5.18
2023-04-26T08:30:32.846Z,5.88
2023-04-26T08:33:06.877Z,6.20
2023-04-26T08:35:34.052Z,4.53
2023-04-26T08:38:07.813Z,4.82
2023-04-26T08:40:37.059Z,4.03
2023-04-26T08:43:10.875Z,5.32
2023-04-26T08:45:40.740Z,5.00
2023-04-26T08:48:17.980Z,3.60
2023-04-26T08:50:45.409Z,3.90
2023-04-26T08:53:20.794Z,3.65
2023-04-26T08:55:50.631Z,3.20
2023-04-26T08:58:24.824Z,3.22
2023-04-26T09:00:52.120Z,3.30
2023-04-26T09:03:26.265Z,3.70
2023-04-26T09:05:54.518Z,2.78
2023-04-26T09:08:28.993Z,3.47
2023-04-26T09:10:57.543Z,3.33
2023-04-26T09:13:28.789Z,2.92
2023-04-26T09:15:55.856Z,2.47
2023-04-26T09:18:23.730Z,2.78
2023-04-26T09:21:04.110Z,2.85
2023-04-26T09:23:31.226Z,3.70
2023-04-26T09:26:15.770Z,3.15
2023-04-26T09:28:42.830Z,2.50
2023-04-26T09:31:10.402Z,3.22
2023-04-26T09:33:57.285Z,3.00
2023-04-26T09:36:24.221Z,2.60
2023-04-26T09:38:51.375Z,2.85
2023-04-26T09:41:19.893Z,3.13
2023-04-26T09:43:48.466Z,3.35
2023-04-26T09:46:23.055Z,3.28
2023-04-26T09:49:01.516Z,2.88
2023-04-26T09:51:28.449Z,3.28
2023-04-26T09:56:23.838Z,3.20
2023-04-26T09:58:58.405Z,2.83
2023-04-26T10:01:26.628Z,2.75
2023-04-26T10:03:55.224Z,2.42
2023-04-26T10:06:22.415Z,3.40
2023-04-26T10:08:49.512Z,2.25
2023-04-26T10:11:17.581Z,3.28
2023-04-26T10:13:46.053Z,2.90
2023-04-26T10:16:13.102Z,4.47
2023-04-26T10:18:40.026Z,3.38
2023-04-26T10:21:12.951Z,2.80
2023-04-26T10:23:41.243Z,3.35
2023-04-26T10:26:28.177Z,3.13
2023-04-26T10:29:01.472Z,3.10
2023-04-26T10:32:03.388Z,2.80
2023-04-26T10:34:31.560Z,2.85
2023-04-26T10:37:09.639Z,2.60
2023-04-26T10:39:37.205Z,2.72
2023-04-26T10:42:24.788Z,3.30
2023-04-26T10:44:55.291Z,3.20
2023-04-26T10:47:27.984Z,2.83
2023-04-26T10:50:05.094Z,2.95
2023-04-26T10:52:32.904Z,2.90
2023-04-26T10:55:00.627Z,2.97
2023-04-26T10:57:49.946Z,3.28
2023-04-26T11:00:27.946Z,2.88
2023-04-26T11:02:59.086Z,2.58
2023-04-26T11:05:53.424Z,3.42
2023-04-26T11:08:21.880Z,2.75
2023-04-26T11:10:57.436Z,2.92
2023-04-26T11:13:24.589Z,2.63
2023-04-26T11:16:01.014Z,2.70
2023-04-26T11:18:28.524Z,3.00
2023-04-26T11:20:55.758Z,3.00
2023-04-26T11:23:23.586Z,3.17
2023-04-26T11:25:50.770Z,3.53
2023-04-26T11:28:19.354Z,2.90
2023-04-26T11:30:46.406Z,3.20
2023-04-26T11:33:21.647Z,3.20
2023-04-26T11:35:49.316Z,2.83
2023-04-26T11:38:16.681Z,3.10
2023-04-26T11:40:44.578Z,2.80
2023-04-26T11:43:11.710Z,2.65
2023-04-26T11:45:39.080Z,3.45
2023-04-26T11:48:07.992Z,2.90
2023-04-26T11:50:37.927Z,3.10
2023-04-26T11:53:06.574Z,2.80
2023-04-26T11:55:34.688Z,3.47
2023-04-26T11:58:02.042Z,3.08
2023-04-26T12:00:29.127Z,3.17
2023-04-26T12:02:56.358Z,3.15
2023-04-26T12:05:24.957Z,3.30
2023-04-26T12:07:54.021Z,3.80
2023-04-26T12:10:24.251Z,3.70
2023-04-26T12:12:51.954Z,3.60
2023-04-26T12:15:22.372Z,4.47
2023-04-26T12:17:56.968Z,4.30
2023-04-26T12:20:28.052Z,4.15
2023-04-26T12:23:04.888Z,4.68
2023-04-26T12:25:33.093Z,4.80
2023-04-26T12:28:00.585Z,4.50
2023-04-26T12:30:29.421Z,4.57
2023-04-26T12:33:05.726Z,4.40
2023-04-26T12:35:42.298Z,4.40
2023-04-26T12:38:10.991Z,5.00
2023-04-26T12:40:38.394Z,4.68
2023-04-26T12:43:05.381Z,4.60
2023-04-26T12:45:32.619Z,5.88
2023-04-26T12:47:59.640Z,4.25
2023-04-26T12:50:26.759Z,4.70
2023-04-26T12:52:53.686Z,4.10
2023-04-26T12:55:23.353Z,4.30
2023-04-26T12:57:50.363Z,4.40
2023-04-26T13:00:18.193Z,5.18
2023-04-26T13:02:45.466Z,4.70
2023-04-26T13:05:13.147Z,4.63
2023-04-26T13:07:42.478Z,4.50
2023-04-26T13:10:12.064Z,4.38
2023-04-26T13:12:41.453Z,5.25
2023-04-26T13:15:09.730Z,4.30
2023-04-26T13:17:37.642Z,5.40
2023-04-26T13:20:05.707Z,4.80
2023-04-26T13:22:32.631Z,4.72
2023-04-26T13:24:59.541Z,5.32
2023-04-26T13:27:28.408Z,4.65
2023-04-26T13:29:58.650Z,5.05
2023-04-26T13:32:25.720Z,4.72
2023-04-26T13:34:52.937Z,4.45
2023-04-26T13:37:20.580Z,4.70
2023-04-26T13:39:47.572Z,4.28
2023-04-26T13:42:15.057Z,4.15
2023-04-26T13:44:42.260Z,5.07
2023-04-26T13:47:11.061Z,4.25
2023-04-26T13:49:39.128Z,4.50
2023-04-26T13:52:06.072Z,4.35
2023-04-26T13:54:33.087Z,4.82
2023-04-26T13:57:00.170Z,5.03
2023-04-26T13:59:27.152Z,5.13
2023-04-26T14:01:56.366Z,4.80
2023-04-26T14:04:26.905Z,4.70
2023-04-26T14:06:54.211Z,4.65
2023-04-26T14:09:21.169Z,4.95
2023-04-26T14:11:57.067Z,5.72
2023-04-26T14:14:27.696Z,5.63
2023-04-26T14:16:54.853Z,5.47
2023-04-26T14:19:21.794Z,5.43
2023-04-26T14:21:50.051Z,5.65
2023-04-26T14:24:17.034Z,5.13
2023-04-26T14:26:44.052Z,4.75
2023-04-26T14:29:11.024Z,4.95
2023-04-26T14:31:38.155Z,5.30
2023-04-26T14:34:05.079Z,5.05
2023-04-26T14:36:32.205Z,5.28
2023-04-26T14:39:00.556Z,4.82
2023-04-26T14:41:27.551Z,5.88
2023-04-26T14:43:54.486Z,5.95
2023-04-26T14:46:21.518Z,6.47
2023-04-26T14:48:48.541Z,5.88
2023-04-26T14:51:15.541Z,7.05
2023-04-26T14:53:42.524Z,6.28
2023-04-26T14:56:10.798Z,6.85
2023-04-26T14:58:37.774Z,6.35
2023-04-26T15:01:04.998Z,9.18
2023-04-26T15:03:32.090Z,9.68
2023-04-26T15:05:59.551Z,11.27
2023-04-26T15:08:29.550Z,8.32
2023-04-26T15:10:56.853Z,8.35
2023-04-26T15:13:25.234Z,7.53
2023-04-26T15:15:52.348Z,7.80
2023-04-26T15:18:19.533Z,6.28
2023-04-26T15:20:46.480Z,6.15
2023-04-26T15:23:13.469Z,6.22
2023-04-26T15:25:40.416Z,6.60
2023-04-26T15:28:07.351Z,7.35
2023-04-26T15:30:35.673Z,6.10
2023-04-26T15:33:02.810Z,6.13
2023-04-26T15:35:29.930Z,6.07
2023-04-26T15:37:56.876Z,6.53
2023-04-26T15:40:24.134Z,6.45
2023-04-26T15:42:51.173Z,6.20
2023-04-26T15:45:18.696Z,6.45
2023-04-26T15:47:47.395Z,6.18
2023-04-26T15:50:15.323Z,6.88
2023-04-26T15:52:42.339Z,6.97
2023-04-26T15:55:09.491Z,8.15
2023-04-26T15:57:36.692Z,8.40
2023-04-26T16:00:04.336Z,7.82
2023-04-26T16:02:31.390Z,8.18
2023-04-26T16:04:59.949Z,8.60
2023-04-26T16:07:27.111Z,8.70
2023-04-26T16:09:54.119Z,9.30
2023-04-26T16:12:21.094Z,8.48
2023-04-26T16:18:15.989Z,8.68
2023-04-26T16:20:44.605Z,8.93
2023-04-26T16:23:11.592Z,8.90
2023-04-26T16:25:38.689Z,8.68
2023-04-26T16:28:05.636Z,9.23
2023-04-26T16:30:32.708Z,8.95
2023-04-26T16:32:59.696Z,8.45
2023-04-26T16:35:26.696Z,9.50
2023-04-26T16:37:55.235Z,9.93
2023-04-26T16:40:22.433Z,10.05
2023-04-26T16:42:49.376Z,9.30
2023-04-26T16:45:16.813Z,9.25
2023-04-26T16:47:43.880Z,9.07
2023-04-26T16:50:11.340Z,9.50
2023-04-26T16:52:38.891Z,9.32
2023-04-26T16:55:08.090Z,8.70
2023-04-26T16:57:35.138Z,9.32
2023-04-26T17:00:02.082Z,8.52
2023-04-26T17:02:29.371Z,8.73
2023-04-26T17:04:56.974Z,9.52
2023-04-26T17:07:24.063Z,9.20
2023-04-26T17:09:52.996Z,8.52
2023-04-26T17:12:21.666Z,9.30
2023-04-26T17:14:48.596Z,8.48
2023-04-26T17:17:15.537Z,8.63
2023-04-26T17:19:42.487Z,8.85
2023-04-26T17:22:09.383Z,8.50
2023-04-26T17:24:36.401Z,8.68
2023-04-26T17:27:03.777Z,9.13
2023-04-26T17:29:32.132Z,8.52
2023-04-26T17:31:59.117Z,8.10
2023-04-26T17:34:26.326Z,8.13
2023-04-26T17:36:53.289Z,8.38
2023-04-26T17:39:20.242Z,8.20
2023-04-26T17:41:47.196Z,8.05
2023-04-26T17:44:14.151Z,8.50
2023-04-26T17:46:42.635Z,8.10
2023-04-26T17:49:09.626Z,8.75
2023-04-26T17:51:36.652Z,8.32
2023-04-26T17:54:04.041Z,9.30
2023-04-26T17:56:31.494Z,8.95
2023-04-26T17:59:03.603Z,8.27
2023-04-26T18:01:30.853Z,8.35
2023-04-26T18:03:59.474Z,8.63
2023-04-26T18:06:26.796Z,8.10
2023-04-26T18:08:54.007Z,8.68
2023-04-26T18:11:21.278Z,8.02
2023-04-26T18:13:48.295Z,9.85
2023-04-26T18:16:15.304Z,9.25
2023-04-26T18:18:42.463Z,10.13
2023-04-26T18:21:11.611Z,9.68
2023-04-26T18:23:38.570Z,9.65
2023-04-26T18:26:05.532Z,10.07
2023-04-26T18:28:32.472Z,11.18
2023-04-26T18:30:59.748Z,10.40
2023-04-26T18:33:28.522Z,11.13
2023-04-26T18:35:55.567Z,10.75
2023-04-26T18:38:23.907Z,10.80
2023-04-26T18:40:51.120Z,10.57
2023-04-26T18:43:18.171Z,10.68
2023-04-26T18:45:45.263Z,10.05
2023-04-26T18:48:12.366Z,11.05
2023-04-26T18:50:39.514Z,10.32
2023-04-26T18:53:06.425Z,10.55
2023-04-26T18:55:34.797Z,11.20
2023-04-26T18:58:01.724Z,10.10
2023-04-26T19:00:28.646Z,9.82
2023-04-26T19:02:55.733Z,9.70
2023-04-26T19:05:22.754Z,9.52
2023-04-26T19:07:52.013Z,9.52
2023-04-26T19:10:19.068Z,9.10
2023-04-26T19:12:47.501Z,10.18
2023-04-26T19:15:14.652Z,9.88
2023-04-26T19:17:41.929Z,9.90
2023-04-26T19:20:09.925Z,9.05
2023-04-26T19:22:36.866Z,8.68
2023-04-26T19:25:04.191Z,9.23
2023-04-26T19:27:31.181Z,9.57
2023-04-26T19:29:59.534Z,9.07
2023-04-26T19:32:26.553Z,8.93
2023-04-26T19:34:53.722Z,9.15
2023-04-26T19:37:20.680Z,9.35
2023-04-26T19:39:47.818Z,9.93
2023-04-26T19:42:14.740Z,9.80
2023-04-26T19:44:41.809Z,9.57
2023-04-26T19:47:17.000Z,9.02
2023-04-26T19:49:43.966Z,8.45
2023-04-26T19:52:10.899Z,8.40
2023-04-26T19:54:38.048Z,8.43
2023-04-26T19:57:05.105Z,8.95
2023-04-26T19:59:32.052Z,8.13
2023-04-26T20:01:59.031Z,8.23
2023-04-26T20:04:27.471Z,8.18
2023-04-26T20:06:54.557Z,8.05
2023-04-26T20:09:21.911Z,8.45
2023-04-26T20:11:48.930Z,8.05
2023-04-26T20:14:15.857Z,8.45
2023-04-26T20:16:42.946Z,8.80
2023-04-26T20:21:38.667Z,8.45
2023-04-26T20:24:06.606Z,7.85
2023-04-26T20:26:33.582Z,8.07
2023-04-26T20:29:00.686Z,8.57
2023-04-26T20:31:27.654Z,8.45
2023-04-26T20:33:54.682Z,8.23
2023-04-26T20:36:21.807Z,8.15
2023-04-26T20:38:50.195Z,8.80
2023-04-26T20:41:17.167Z,9.00
2023-04-26T20:43:44.100Z,8.30
2023-04-26T20:46:11.099Z,8.20
2023-04-26T20:48:38.023Z,7.65
2023-04-26T20:51:04.992Z,8.75
2023-04-26T20:53:31.969Z,8.85
2023-04-26T20:56:00.388Z,7.57
2023-04-26T20:58:27.278Z,8.15
2023-04-26T21:00:54.215Z,8.50
2023-04-26T21:03:21.527Z,8.50
2023-04-26T21:05:48.704Z,8.27
2023-04-26T21:08:15.751Z,8.77
2023-04-26T21:10:42.944Z,8.32
2023-04-26T21:13:11.423Z,8.68
2023-04-26T21:15:38.431Z,8.57
2023-04-26T21:18:06.042Z,8.52
2023-04-26T21:20:33.127Z,9.20
2023-04-26T21:23:00.122Z,8.63
2023-04-26T21:25:27.079Z,8.73
2023-04-26T21:27:54.189Z,9.00
2023-04-26T21:30:22.948Z,8.57
2023-04-26T21:32:50.038Z,9.32
2023-04-26T21:35:17.046Z,9.43
2023-04-26T21:37:44.037Z,9.02
2023-04-26T21:40:11.778Z,9.00
2023-04-26T21:42:38.725Z,9.27
2023-04-26T21:45:06.971Z,9.68
2023-04-26T21:47:35.315Z,9.48
2023-04-26T21:50:02.280Z,9.68
2023-04-26T21:52:29.222Z,10.13
2023-04-26T21:54:56.333Z,9.88
2023-04-26T21:57:23.307Z,9.70
2023-04-26T21:59:50.279Z,10.13
2023-04-26T22:02:17.275Z,10.35
2023-04-26T22:04:45.741Z,10.25
2023-04-26T22:07:12.774Z,10.35
2023-04-26T22:09:39.684Z,10.18
2023-04-26T22:12:07.145Z,9.93
2023-04-26T22:14:34.088Z,10.65
2023-04-26T22:17:01.058Z,9.60
2023-04-26T22:19:28.012Z,9.73
2023-04-26T22:21:56.520Z,9.57
2023-04-26T22:24:23.511Z,9.52
2023-04-26T22:26:50.441Z,9.57
2023-04-26T22:29:17.417Z,10.93
2023-04-26T22:31:44.419Z,12.13
2023-04-26T22:34:11.754Z,10.82
2023-04-26T22:36:39.361Z,10.05
2023-04-26T22:39:07.686Z,9.82
2023-04-26T22:41:34.992Z,9.80
2023-04-26T22:44:02.117Z,9.65
2023-04-26T22:46:29.365Z,10.57
2023-04-26T22:48:56.366Z,9.93
2023-04-26T22:51:23.664Z,10.02
2023-04-26T22:53:50.587Z,10.13
2023-04-26T22:56:19.003Z,10.55
2023-04-26T22:58:46.085Z,9.57
2023-04-26T23:01:13.094Z,8.95
2023-04-26T23:03:40.170Z,9.10
2023-04-26T23:06:07.536Z,9.65
2023-04-26T23:08:34.483Z,8.95
2023-04-26T23:11:01.497Z,8.80
2023-04-26T23:13:29.796Z,8.60
2023-04-26T23:15:56.748Z,9.85
2023-04-26T23:18:23.721Z,9.40
2023-04-26T23:20:50.667Z,9.93
2023-04-26T23:23:17.800Z,10.15
2023-04-26T23:25:44.984Z,9.80
2023-04-26T23:28:11.947Z,9.43
2023-04-26T23:30:40.463Z,9.18
2023-04-26T23:33:07.487Z,9.15
2023-04-26T23:35:34.456Z,9.63
2023-04-26T23:38:01.365Z,9.82
2023-04-26T23:40:28.330Z,9.02
2023-04-26T23:42:55.453Z,10.05
2023-04-26T23:45:22.378Z,9.45
2023-04-26T23:47:50.743Z,9.75
2023-04-26T23:50:17.856Z,10.10
2023-04-26T23:52:44.754Z,9.65
2023-04-26T23:55:11.874Z,9.90
2023-04-26T23:57:38.798Z,9.10
